Station History

Weather Underground - logo

Station Historical Data
Daily Summary for February 13, 2018 Units:  Both    English   Metric
« Previous Day
Next Day »
Daily Weekly Monthly Yearly Custom
  High: Low: Average:
Temperature: 63.5 °F /  17.5 °C 33.9 °F /  1.1 °C 49.8 °F /  9.9 °C
Dew Point: 41.3 °F /  5.2 °C 31.3 °F /  -0.4 °C 36.8 °F /  2.7 °C
Humidity: 92 % 37 % 64 %
Wind Speed: 6.9 mph /  11.1 km/h - 1.2 mph /  1.9 km/h
Wind Gust: 6.9 mph /  11.1 km/h - -
Wind:- - WNW
Pressure: 30.18 in /  1021.9 hPa 29.99 in /  1015.5 hPa -
Precipitation: 0.00 in /  0 mm    
Historical Graphs
 
 
Tabular Data for February 13, 2018
Time Temperature Dew Point Pressure Wind Wind Speed Wind Gust Humidity Rainfall Rate (Hourly)
00:03 40.0 °F /  4.4 °C 36.7 °F /  2.6 °C 30.00 in /  1015.8 hPa Calm     88 % 0.00 in /  0 mm
00:08 39.7 °F /  4.3 °C 36.4 °F /  2.4 °C 30.00 in /  1015.8 hPa Calm     88 % 0.00 in /  0 mm
00:13 39.5 °F /  4.2 °C 36.2 °F /  2.3 °C 29.99 in /  1015.5 hPa Calm     88 % 0.00 in /  0 mm
00:18 39.3 °F /  4.1 °C 36.0 °F /  2.2 °C 29.99 in /  1015.5 hPa Calm     88 % 0.00 in /  0 mm
00:23 39.2 °F /  4 °C 35.9 °F /  2.2 °C 30.00 in /  1015.8 hPa Calm     88 % 0.00 in /  0 mm
00:28 39.1 °F /  3.9 °C 36.1 °F /  2.3 °C 30.00 in /  1015.8 hPa Calm     89 % 0.00 in /  0 mm
00:33 39.2 °F /  4 °C 36.5 °F /  2.5 °C 30.00 in /  1015.8 hPa Calm     90 % 0.00 in /  0 mm
00:38 39.3 °F /  4.1 °C 36.6 °F /  2.6 °C 30.00 in /  1015.8 hPa Calm     90 % 0.00 in /  0 mm
00:43 39.3 °F /  4.1 °C 36.6 °F /  2.6 °C 30.00 in /  1015.8 hPa Calm     90 % 0.00 in /  0 mm
00:48 39.3 °F /  4.1 °C 36.3 °F /  2.4 °C 30.00 in /  1015.8 hPa Calm     89 % 0.00 in /  0 mm
00:53 39.3 °F /  4.1 °C 36.6 °F /  2.6 °C 30.00 in /  1015.8 hPa Calm     90 % 0.00 in /  0 mm
00:58 39.6 °F /  4.2 °C 36.9 °F /  2.7 °C 30.01 in /  1016.1 hPa Calm     90 % 0.00 in /  0 mm
01:03 40.0 °F /  4.4 °C 37.3 °F /  2.9 °C 30.01 in /  1016.1 hPa Calm     90 % 0.00 in /  0 mm
01:08 40.1 °F /  4.5 °C 37.1 °F /  2.8 °C 30.01 in /  1016.1 hPa Calm     89 % 0.00 in /  0 mm
01:14 40.1 °F /  4.5 °C 37.1 °F /  2.8 °C 30.01 in /  1016.1 hPa NNE 1.2 mph /  1.9 km/h   89 % 0.00 in /  0 mm
01:19 40.0 °F /  4.4 °C 36.7 °F /  2.6 °C 30.01 in /  1016.1 hPa Calm     88 % 0.00 in /  0 mm
01:24 40.0 °F /  4.4 °C 37.0 °F /  2.8 °C 30.01 in /  1016.1 hPa Calm     89 % 0.00 in /  0 mm
01:29 40.1 °F /  4.5 °C 37.1 °F /  2.8 °C 30.01 in /  1016.1 hPa Calm     89 % 0.00 in /  0 mm
01:34 40.1 °F /  4.5 °C 36.8 °F /  2.7 °C 30.02 in /  1016.5 hPa Calm     88 % 0.00 in /  0 mm
01:39 39.9 °F /  4.4 °C 36.6 °F /  2.6 °C 30.02 in /  1016.5 hPa Calm     88 % 0.00 in /  0 mm
01:44 39.0 °F /  3.9 °C 35.5 °F /  1.9 °C 30.02 in /  1016.5 hPa Calm     87 % 0.00 in /  0 mm
01:49 38.6 °F /  3.7 °C 35.4 °F /  1.9 °C 30.02 in /  1016.5 hPa Calm     88 % 0.00 in /  0 mm
01:54 38.3 °F /  3.5 °C 35.1 °F /  1.7 °C 30.02 in /  1016.5 hPa Calm     88 % 0.00 in /  0 mm
01:59 38.1 °F /  3.4 °C 34.9 °F /  1.6 °C 30.02 in /  1016.5 hPa Calm     88 % 0.00 in /  0 mm
02:04 37.7 °F /  3.2 °C 34.5 °F /  1.4 °C 30.02 in /  1016.5 hPa Calm     88 % 0.00 in /  0 mm
02:09 37.5 °F /  3.1 °C 34.6 °F /  1.4 °C 30.02 in /  1016.5 hPa Calm     89 % 0.00 in /  0 mm
02:14 37.2 °F /  2.9 °C 34.3 °F /  1.3 °C 30.02 in /  1016.5 hPa Calm     89 % 0.00 in /  0 mm
02:19 37.1 °F /  2.8 °C 34.4 °F /  1.3 °C 30.03 in /  1016.8 hPa Calm     90 % 0.00 in /  0 mm
02:24 37.2 °F /  2.9 °C 34.8 °F /  1.6 °C 30.03 in /  1016.8 hPa Calm     91 % 0.00 in /  0 mm
02:29 37.2 °F /  2.9 °C 34.8 °F /  1.6 °C 30.03 in /  1016.8 hPa Calm     91 % 0.00 in /  0 mm
02:34 37.1 °F /  2.8 °C 34.4 °F /  1.3 °C 30.03 in /  1016.8 hPa Calm     90 % 0.00 in /  0 mm
02:39 36.9 °F /  2.7 °C 34.2 °F /  1.2 °C 30.03 in /  1016.8 hPa Calm     90 % 0.00 in /  0 mm
02:44 36.3 °F /  2.4 °C 33.4 °F /  0.8 °C 30.03 in /  1016.8 hPa Calm     89 % 0.00 in /  0 mm
02:49 36.2 °F /  2.3 °C 33.5 °F /  0.8 °C 30.04 in /  1017.2 hPa Calm     90 % 0.00 in /  0 mm
02:54 36.2 °F /  2.3 °C 33.5 °F /  0.8 °C 30.03 in /  1016.8 hPa Calm     90 % 0.00 in /  0 mm
02:59 36.1 °F /  2.3 °C 33.7 °F /  0.9 °C 30.03 in /  1016.8 hPa Calm     91 % 0.00 in /  0 mm
03:04 36.0 °F /  2.2 °C 33.6 °F /  0.9 °C 30.04 in /  1017.2 hPa Calm     91 % 0.00 in /  0 mm
03:09 36.0 °F /  2.2 °C 33.6 °F /  0.9 °C 30.04 in /  1017.2 hPa Calm     91 % 0.00 in /  0 mm
03:14 35.9 °F /  2.2 °C 33.5 °F /  0.8 °C 30.04 in /  1017.2 hPa Calm     91 % 0.00 in /  0 mm
03:19 35.9 °F /  2.2 °C 33.5 °F /  0.8 °C 30.04 in /  1017.2 hPa Calm     91 % 0.00 in /  0 mm
03:24 36.1 °F /  2.3 °C 34.0 °F /  1.1 °C 30.04 in /  1017.2 hPa Calm     92 % 0.00 in /  0 mm
03:29 36.3 °F /  2.4 °C 34.2 °F /  1.2 °C 30.04 in /  1017.2 hPa Calm     92 % 0.00 in /  0 mm
03:34 36.3 °F /  2.4 °C 34.2 °F /  1.2 °C 30.04 in /  1017.2 hPa Calm     92 % 0.00 in /  0 mm
03:39 36.4 °F /  2.4 °C 34.3 °F /  1.3 °C 30.05 in /  1017.5 hPa Calm     92 % 0.00 in /  0 mm
03:44 36.3 °F /  2.4 °C 34.2 °F /  1.2 °C 30.05 in /  1017.5 hPa Calm     92 % 0.00 in /  0 mm
03:49 36.4 °F /  2.4 °C 34.3 °F /  1.3 °C 30.06 in /  1017.8 hPa Calm     92 % 0.00 in /  0 mm
03:54 36.7 °F /  2.6 °C 34.6 °F /  1.4 °C 30.06 in /  1017.8 hPa Calm     92 % 0.00 in /  0 mm
03:59 37.0 °F /  2.8 °C 34.9 °F /  1.6 °C 30.06 in /  1017.8 hPa Calm     92 % 0.00 in /  0 mm
04:04 37.3 °F /  2.9 °C 35.2 °F /  1.8 °C 30.06 in /  1017.8 hPa Calm     92 % 0.00 in /  0 mm
04:09 37.6 °F /  3.1 °C 35.5 °F /  1.9 °C 30.06 in /  1017.8 hPa Calm     92 % 0.00 in /  0 mm
04:14 37.6 °F /  3.1 °C 35.2 °F /  1.8 °C 30.06 in /  1017.8 hPa Calm     91 % 0.00 in /  0 mm
04:19 37.5 °F /  3.1 °C 34.8 °F /  1.6 °C 30.07 in /  1018.2 hPa Calm     90 % 0.00 in /  0 mm
04:24 37.6 °F /  3.1 °C 35.2 °F /  1.8 °C 30.07 in /  1018.2 hPa Calm     91 % 0.00 in /  0 mm
04:29 37.2 °F /  2.9 °C 34.5 °F /  1.4 °C 30.07 in /  1018.2 hPa Calm     90 % 0.00 in /  0 mm
04:34 37.5 °F /  3.1 °C 35.1 °F /  1.7 °C 30.07 in /  1018.2 hPa Calm     91 % 0.00 in /  0 mm
04:39 37.6 °F /  3.1 °C 35.2 °F /  1.8 °C 30.07 in /  1018.2 hPa Calm     91 % 0.00 in /  0 mm
04:44 37.7 °F /  3.2 °C 35.3 °F /  1.8 °C 30.07 in /  1018.2 hPa Calm     91 % 0.00 in /  0 mm
04:49 37.7 °F /  3.2 °C 35.0 °F /  1.7 °C 30.07 in /  1018.2 hPa Calm     90 % 0.00 in /  0 mm
04:54 37.7 °F /  3.2 °C 35.0 °F /  1.7 °C 30.07 in /  1018.2 hPa Calm     90 % 0.00 in /  0 mm
04:59 37.6 °F /  3.1 °C 34.9 °F /  1.6 °C 30.07 in /  1018.2 hPa Calm     90 % 0.00 in /  0 mm
05:04 37.7 °F /  3.2 °C 35.0 °F /  1.7 °C 30.07 in /  1018.2 hPa Calm     90 % 0.00 in /  0 mm
05:09 37.6 °F /  3.1 °C 34.7 °F /  1.5 °C 30.08 in /  1018.5 hPa Calm     89 % 0.00 in /  0 mm
05:14 36.8 °F /  2.7 °C 33.6 °F /  0.9 °C 30.08 in /  1018.5 hPa Calm     88 % 0.00 in /  0 mm
05:19 35.9 °F /  2.2 °C 33.0 °F /  0.6 °C 30.08 in /  1018.5 hPa Calm     89 % 0.00 in /  0 mm
05:24 35.7 °F /  2.1 °C 33.1 °F /  0.6 °C 30.08 in /  1018.5 hPa Calm     90 % 0.00 in /  0 mm
05:29 35.7 °F /  2.1 °C 33.3 °F /  0.7 °C 30.09 in /  1018.8 hPa Calm     91 % 0.00 in /  0 mm
05:34 35.7 °F /  2.1 °C 33.3 °F /  0.7 °C 30.09 in /  1018.8 hPa Calm     91 % 0.00 in /  0 mm
05:39 35.5 °F /  1.9 °C 33.1 °F /  0.6 °C 30.09 in /  1018.8 hPa Calm     91 % 0.00 in /  0 mm
05:44 35.6 °F /  2 °C 33.2 °F /  0.7 °C 30.09 in /  1018.8 hPa Calm     91 % 0.00 in /  0 mm
05:49 35.5 °F /  1.9 °C 33.1 °F /  0.6 °C 30.09 in /  1018.8 hPa Calm     91 % 0.00 in /  0 mm
05:54 35.3 °F /  1.8 °C 32.9 °F /  0.5 °C 30.09 in /  1018.8 hPa Calm     91 % 0.00 in /  0 mm
05:59 34.9 °F /  1.6 °C 32.3 °F /  0.2 °C 30.09 in /  1018.8 hPa Calm     90 % 0.00 in /  0 mm
06:04 34.5 °F /  1.4 °C 31.9 °F /  -0.1 °C 30.10 in /  1019.2 hPa Calm     90 % 0.00 in /  0 mm
06:09 34.3 °F /  1.3 °C 31.9 °F /  -0.1 °C 30.10 in /  1019.2 hPa Calm     91 % 0.00 in /  0 mm
06:14 34.7 °F /  1.5 °C 32.6 °F /  0.3 °C 30.10 in /  1019.2 hPa Calm     92 % 0.00 in /  0 mm
06:19 34.8 °F /  1.6 °C 32.7 °F /  0.4 °C 30.10 in /  1019.2 hPa Calm     92 % 0.00 in /  0 mm
06:24 34.6 °F /  1.4 °C 32.2 °F /  0.1 °C 30.10 in /  1019.2 hPa Calm     91 % 0.00 in /  0 mm
06:29 34.5 °F /  1.4 °C 32.1 °F /  0.1 °C 30.10 in /  1019.2 hPa Calm     91 % 0.00 in /  0 mm
06:34 34.5 °F /  1.4 °C 32.1 °F /  0.1 °C 30.11 in /  1019.5 hPa Calm     91 % 0.00 in /  0 mm
06:39 34.3 °F /  1.3 °C 31.9 °F /  -0.1 °C 30.11 in /  1019.5 hPa Calm     91 % 0.00 in /  0 mm
06:44 33.9 °F /  1.1 °C 31.3 °F /  -0.4 °C 30.11 in /  1019.5 hPa Calm     90 % 0.00 in /  0 mm
06:49 34.0 °F /  1.1 °C 31.4 °F /  -0.3 °C 30.12 in /  1019.9 hPa Calm     90 % 0.00 in /  0 mm
06:54 34.0 °F /  1.1 °C 31.4 °F /  -0.3 °C 30.12 in /  1019.9 hPa Calm     90 % 0.00 in /  0 mm
06:59 34.4 °F /  1.3 °C 32.0 °F /  0 °C 30.12 in /  1019.9 hPa Calm     91 % 0.00 in /  0 mm
07:04 34.9 °F /  1.6 °C 32.5 °F /  0.3 °C 30.12 in /  1019.9 hPa Calm     91 % 0.00 in /  0 mm
07:09 35.0 °F /  1.7 °C 32.4 °F /  0.2 °C 30.12 in /  1019.9 hPa Calm     90 % 0.00 in /  0 mm
07:14 35.1 °F /  1.7 °C 32.7 °F /  0.4 °C 30.12 in /  1019.9 hPa Calm     91 % 0.00 in /  0 mm
07:19 35.3 °F /  1.8 °C 32.9 °F /  0.5 °C 30.13 in /  1020.2 hPa Calm     91 % 0.00 in /  0 mm
07:24 35.7 °F /  2.1 °C 33.6 °F /  0.9 °C 30.13 in /  1020.2 hPa Calm     92 % 0.00 in /  0 mm
07:29 36.2 °F /  2.3 °C 33.8 °F /  1 °C 30.13 in /  1020.2 hPa Calm     91 % 0.00 in /  0 mm
07:34 36.6 °F /  2.6 °C 34.2 °F /  1.2 °C 30.13 in /  1020.2 hPa Calm     91 % 0.00 in /  0 mm
07:39 37.0 °F /  2.8 °C 34.6 °F /  1.4 °C 30.14 in /  1020.5 hPa Calm     91 % 0.00 in /  0 mm
07:44 37.6 °F /  3.1 °C 35.2 °F /  1.8 °C 30.14 in /  1020.5 hPa Calm     91 % 0.00 in /  0 mm
07:49 38.7 °F /  3.7 °C 36.3 °F /  2.4 °C 30.14 in /  1020.5 hPa Calm     91 % 0.00 in /  0 mm
07:54 40.9 °F /  4.9 °C 38.2 °F /  3.4 °C 30.15 in /  1020.9 hPa Calm     90 % 0.00 in /  0 mm
08:00 42.5 °F /  5.8 °C 38.9 °F /  3.8 °C 30.15 in /  1020.9 hPa Calm     87 % 0.00 in /  0 mm
08:05 43.7 °F /  6.5 °C 39.2 °F /  4 °C 30.15 in /  1020.9 hPa Calm     84 % 0.00 in /  0 mm
08:10 44.5 °F /  6.9 °C 39.3 °F /  4.1 °C 30.15 in /  1020.9 hPa Calm     82 % 0.00 in /  0 mm
08:15 45.2 °F /  7.3 °C 40.0 °F /  4.4 °C 30.15 in /  1020.9 hPa Calm     82 % 0.00 in /  0 mm
08:20 46.0 °F /  7.8 °C 40.5 °F /  4.7 °C 30.16 in /  1021.2 hPa Calm     81 % 0.00 in /  0 mm
08:25 46.9 °F /  8.3 °C 41.1 °F /  5.1 °C 30.16 in /  1021.2 hPa SE 1.2 mph /  1.9 km/h 1.2 mph /  1.9 km/h 80 % 0.00 in /  0 mm
08:30 47.7 °F /  8.7 °C 40.8 °F /  4.9 °C 30.16 in /  1021.2 hPa Calm     77 % 0.00 in /  0 mm
08:35 47.9 °F /  8.8 °C 41.0 °F /  5 °C 30.16 in /  1021.2 hPa Calm     77 % 0.00 in /  0 mm
08:40 47.8 °F /  8.8 °C 40.6 °F /  4.8 °C 30.16 in /  1021.2 hPa Calm     76 % 0.00 in /  0 mm
08:45 47.8 °F /  8.8 °C 41.3 °F /  5.2 °C 30.17 in /  1021.6 hPa Calm     78 % 0.00 in /  0 mm
08:50 48.2 °F /  9 °C 40.6 °F /  4.8 °C 30.17 in /  1021.6 hPa NW 1.2 mph /  1.9 km/h 1.2 mph /  1.9 km/h 75 % 0.00 in /  0 mm
08:55 48.4 °F /  9.1 °C 40.8 °F /  4.9 °C 30.17 in /  1021.6 hPa Calm     75 % 0.00 in /  0 mm
09:00 48.9 °F /  9.4 °C 40.6 °F /  4.8 °C 30.17 in /  1021.6 hPa West 1.2 mph /  1.9 km/h   73 % 0.00 in /  0 mm
09:05 49.7 °F /  9.8 °C 40.7 °F /  4.8 °C 30.18 in /  1021.9 hPa Calm     71 % 0.00 in /  0 mm
09:10 50.1 °F /  10.1 °C 40.3 °F /  4.6 °C 30.17 in /  1021.6 hPa Calm     69 % 0.00 in /  0 mm
09:15 50.4 °F /  10.2 °C 40.2 °F /  4.6 °C 30.18 in /  1021.9 hPa Calm     68 % 0.00 in /  0 mm
09:20 51.1 °F /  10.6 °C 40.1 °F /  4.5 °C 30.18 in /  1021.9 hPa Calm     66 % 0.00 in /  0 mm
09:25 51.3 °F /  10.7 °C 41.1 °F /  5.1 °C 30.18 in /  1021.9 hPa Calm     68 % 0.00 in /  0 mm
09:30 51.9 °F /  11.1 °C 41.3 °F /  5.2 °C 30.18 in /  1021.9 hPa WNW 1.2 mph /  1.9 km/h   67 % 0.00 in /  0 mm
09:35 52.1 °F /  11.2 °C 40.7 °F /  4.8 °C 30.18 in /  1021.9 hPa Calm     65 % 0.00 in /  0 mm
09:40 52.5 °F /  11.4 °C 41.1 °F /  5.1 °C 30.18 in /  1021.9 hPa West 1.2 mph /  1.9 km/h   65 % 0.00 in /  0 mm
09:45 52.7 °F /  11.5 °C 40.5 °F /  4.7 °C 30.18 in /  1021.9 hPa WSW 1.2 mph /  1.9 km/h 1.2 mph /  1.9 km/h 63 % 0.00 in /  0 mm
09:50 53.1 °F /  11.7 °C 40.8 °F /  4.9 °C 30.18 in /  1021.9 hPa WNW 1.2 mph /  1.9 km/h 1.2 mph /  1.9 km/h 63 % 0.00 in /  0 mm
09:55 53.6 °F /  12 °C 39.6 °F /  4.2 °C 30.18 in /  1021.9 hPa NW 3.5 mph /  5.6 km/h 3.5 mph /  5.6 km/h 59 % 0.00 in /  0 mm
10:00 53.9 °F /  12.2 °C 39.9 °F /  4.4 °C 30.18 in /  1021.9 hPa NW 2.3 mph /  3.7 km/h 2.3 mph /  3.7 km/h 59 % 0.00 in /  0 mm
10:05 54.1 °F /  12.3 °C 40.1 °F /  4.5 °C 30.18 in /  1021.9 hPa WNW 1.0 mph /  1.6 km/h 1.0 mph /  1.6 km/h 59 % 0.00 in /  0 mm
10:10 54.3 °F /  12.4 °C 39.8 °F /  4.3 °C 30.18 in /  1021.9 hPa NW 3.5 mph /  5.6 km/h 3.5 mph /  5.6 km/h 58 % 0.00 in /  0 mm
10:15 54.5 °F /  12.5 °C 39.6 °F /  4.2 °C 30.18 in /  1021.9 hPa WNW 2.3 mph /  3.7 km/h 2.3 mph /  3.7 km/h 57 % 0.00 in /  0 mm
10:20 54.8 °F /  12.7 °C 39.4 °F /  4.1 °C 30.18 in /  1021.9 hPa NW 2.3 mph /  3.7 km/h 2.3 mph /  3.7 km/h 56 % 0.00 in /  0 mm
10:25 55.1 °F /  12.8 °C 39.2 °F /  4 °C 30.18 in /  1021.9 hPa West 1.2 mph /  1.9 km/h 1.2 mph /  1.9 km/h 55 % 0.00 in /  0 mm
10:30 55.6 °F /  13.1 °C 39.2 °F /  4 °C 30.18 in /  1021.9 hPa NW 2.3 mph /  3.7 km/h 2.3 mph /  3.7 km/h 54 % 0.00 in /  0 mm
10:35 55.9 °F /  13.3 °C 38.5 °F /  3.6 °C 30.17 in /  1021.6 hPa WNW 2.3 mph /  3.7 km/h 2.3 mph /  3.7 km/h 52 % 0.00 in /  0 mm
10:40 56.4 °F /  13.6 °C 39.5 °F /  4.2 °C 30.18 in /  1021.9 hPa NW 2.3 mph /  3.7 km/h 2.3 mph /  3.7 km/h 53 % 0.00 in /  0 mm
10:45 56.7 °F /  13.7 °C 39.3 °F /  4.1 °C 30.18 in /  1021.9 hPa WNW 2.3 mph /  3.7 km/h 2.3 mph /  3.7 km/h 52 % 0.00 in /  0 mm
10:50 57.1 °F /  13.9 °C 38.6 °F /  3.7 °C 30.17 in /  1021.6 hPa NW 1.2 mph /  1.9 km/h 1.2 mph /  1.9 km/h 50 % 0.00 in /  0 mm
10:55 57.2 °F /  14 °C 38.2 °F /  3.4 °C 30.17 in /  1021.6 hPa WNW 1.2 mph /  1.9 km/h 1.2 mph /  1.9 km/h 49 % 0.00 in /  0 mm
11:00 57.4 °F /  14.1 °C 37.9 °F /  3.3 °C 30.17 in /  1021.6 hPa West 3.5 mph /  5.6 km/h 3.5 mph /  5.6 km/h 48 % 0.00 in /  0 mm
11:05 57.7 °F /  14.3 °C 38.7 °F /  3.7 °C 30.17 in /  1021.6 hPa NW 3.5 mph /  5.6 km/h 3.5 mph /  5.6 km/h 49 % 0.00 in /  0 mm
11:10 58.2 °F /  14.6 °C 39.1 °F /  3.9 °C 30.17 in /  1021.6 hPa NW 2.3 mph /  3.7 km/h 2.3 mph /  3.7 km/h 49 % 0.00 in /  0 mm
11:15 58.4 °F /  14.7 °C 38.2 °F /  3.4 °C 30.17 in /  1021.6 hPa NNW 1.2 mph /  1.9 km/h   47 % 0.00 in /  0 mm
11:20 59.0 °F /  15 °C 38.2 °F /  3.4 °C 30.17 in /  1021.6 hPa NW 3.5 mph /  5.6 km/h 3.5 mph /  5.6 km/h 46 % 0.00 in /  0 mm
11:25 59.3 °F /  15.2 °C 37.4 °F /  3 °C 30.16 in /  1021.2 hPa North 1.2 mph /  1.9 km/h 1.2 mph /  1.9 km/h 44 % 0.00 in /  0 mm
11:30 59.6 °F /  15.3 °C 38.8 °F /  3.8 °C 30.16 in /  1021.2 hPa NW 2.3 mph /  3.7 km/h 2.3 mph /  3.7 km/h 46 % 0.00 in /  0 mm
11:35 59.8 °F /  15.4 °C 39.5 °F /  4.2 °C 30.16 in /  1021.2 hPa NW 2.0 mph /  3.2 km/h 2.0 mph /  3.2 km/h 47 % 0.00 in /  0 mm
11:40 59.8 °F /  15.4 °C 38.4 °F /  3.6 °C 30.16 in /  1021.2 hPa NW 5.8 mph /  9.3 km/h 5.8 mph /  9.3 km/h 45 % 0.00 in /  0 mm
11:45 59.9 °F /  15.5 °C 38.5 °F /  3.6 °C 30.16 in /  1021.2 hPa Calm   0.1 mph /  0.2 km/h 45 % 0.00 in /  0 mm
11:50 60.1 °F /  15.6 °C 39.2 °F /  4 °C 30.16 in /  1021.2 hPa Calm     46 % 0.00 in /  0 mm
11:55 60.4 °F /  15.8 °C 40.6 °F /  4.8 °C 30.16 in /  1021.2 hPa West 3.5 mph /  5.6 km/h 3.5 mph /  5.6 km/h 48 % 0.00 in /  0 mm
12:00 60.7 °F /  15.9 °C 40.3 °F /  4.6 °C 30.16 in /  1021.2 hPa WNW 3.5 mph /  5.6 km/h 3.5 mph /  5.6 km/h 47 % 0.00 in /  0 mm
12:05 60.4 °F /  15.8 °C 40.1 °F /  4.5 °C 30.15 in /  1020.9 hPa NW 3.5 mph /  5.6 km/h 3.5 mph /  5.6 km/h 47 % 0.00 in /  0 mm
12:10 60.5 °F /  15.8 °C 39.0 °F /  3.9 °C 30.15 in /  1020.9 hPa NNW 2.3 mph /  3.7 km/h 2.3 mph /  3.7 km/h 45 % 0.00 in /  0 mm
12:15 60.8 °F /  16 °C 40.4 °F /  4.7 °C 30.15 in /  1020.9 hPa SE 3.5 mph /  5.6 km/h 3.5 mph /  5.6 km/h 47 % 0.00 in /  0 mm
12:20 60.8 °F /  16 °C 40.4 °F /  4.7 °C 30.15 in /  1020.9 hPa Calm   0.4 mph /  0.6 km/h 47 % 0.00 in /  0 mm
12:25 61.1 °F /  16.2 °C 40.7 °F /  4.8 °C 30.15 in /  1020.9 hPa North 3.5 mph /  5.6 km/h 3.5 mph /  5.6 km/h 47 % 0.00 in /  0 mm
12:30 61.3 °F /  16.3 °C 40.9 °F /  4.9 °C 30.15 in /  1020.9 hPa NW 3.5 mph /  5.6 km/h 3.5 mph /  5.6 km/h 47 % 0.00 in /  0 mm
12:35 61.6 °F /  16.4 °C 40.6 °F /  4.8 °C 30.14 in /  1020.5 hPa NW 3.5 mph /  5.6 km/h 3.5 mph /  5.6 km/h 46 % 0.00 in /  0 mm
12:40 61.5 °F /  16.4 °C 39.9 °F /  4.4 °C 30.14 in /  1020.5 hPa NW 4.6 mph /  7.4 km/h 4.6 mph /  7.4 km/h 45 % 0.00 in /  0 mm
12:45 61.3 °F /  16.3 °C 40.9 °F /  4.9 °C 30.14 in /  1020.5 hPa NNW 5.0 mph /  8 km/h 5.0 mph /  8 km/h 47 % 0.00 in /  0 mm
12:50 61.6 °F /  16.4 °C 39.5 °F /  4.2 °C 30.14 in /  1020.5 hPa NW 3.5 mph /  5.6 km/h 3.5 mph /  5.6 km/h 44 % 0.00 in /  0 mm
12:56 61.6 °F /  16.4 °C 39.5 °F /  4.2 °C 30.14 in /  1020.5 hPa WNW 3.5 mph /  5.6 km/h 3.5 mph /  5.6 km/h 44 % 0.00 in /  0 mm
13:01 61.7 °F /  16.5 °C 39.6 °F /  4.2 °C 30.14 in /  1020.5 hPa WNW 4.6 mph /  7.4 km/h 4.6 mph /  7.4 km/h 44 % 0.00 in /  0 mm
13:06 61.9 °F /  16.6 °C 39.7 °F /  4.3 °C 30.14 in /  1020.5 hPa WNW 3.5 mph /  5.6 km/h 3.5 mph /  5.6 km/h 44 % 0.00 in /  0 mm
13:11 62.1 °F /  16.7 °C 38.1 °F /  3.4 °C 30.14 in /  1020.5 hPa NW 3.5 mph /  5.6 km/h 3.5 mph /  5.6 km/h 41 % 0.00 in /  0 mm
13:16 62.1 °F /  16.7 °C 39.9 °F /  4.4 °C 30.14 in /  1020.5 hPa NW 6.9 mph /  11.1 km/h 6.9 mph /  11.1 km/h 44 % 0.00 in /  0 mm
13:21 62.2 °F /  16.8 °C 39.4 °F /  4.1 °C 30.13 in /  1020.2 hPa West 4.0 mph /  6.4 km/h 4.0 mph /  6.4 km/h 43 % 0.00 in /  0 mm
13:26 62.2 °F /  16.8 °C 39.4 °F /  4.1 °C 30.14 in /  1020.5 hPa NW 3.5 mph /  5.6 km/h 3.5 mph /  5.6 km/h 43 % 0.00 in /  0 mm
13:31 62.7 °F /  17.1 °C 39.3 °F /  4.1 °C 30.14 in /  1020.5 hPa NNW 6.0 mph /  9.7 km/h 6.0 mph /  9.7 km/h 42 % 0.00 in /  0 mm
13:36 62.6 °F /  17 °C 39.2 °F /  4 °C 30.13 in /  1020.2 hPa NW 6.0 mph /  9.7 km/h 6.0 mph /  9.7 km/h 42 % 0.00 in /  0 mm
13:41 62.5 °F /  16.9 °C 39.1 °F /  3.9 °C 30.13 in /  1020.2 hPa NW 3.5 mph /  5.6 km/h 3.5 mph /  5.6 km/h 42 % 0.00 in /  0 mm
13:46 62.6 °F /  17 °C 39.8 °F /  4.3 °C 30.13 in /  1020.2 hPa NW 4.0 mph /  6.4 km/h 4.0 mph /  6.4 km/h 43 % 0.00 in /  0 mm
13:51 62.7 °F /  17.1 °C 39.3 °F /  4.1 °C 30.13 in /  1020.2 hPa NNW 4.6 mph /  7.4 km/h 4.6 mph /  7.4 km/h 42 % 0.00 in /  0 mm
13:56 62.9 °F /  17.2 °C 39.4 °F /  4.1 °C 30.13 in /  1020.2 hPa NNW 5.0 mph /  8 km/h 5.0 mph /  8 km/h 42 % 0.00 in /  0 mm
14:01 62.5 °F /  16.9 °C 39.1 °F /  3.9 °C 30.13 in /  1020.2 hPa WNW 2.3 mph /  3.7 km/h 2.3 mph /  3.7 km/h 42 % 0.00 in /  0 mm
14:06 62.3 °F /  16.8 °C 39.5 °F /  4.2 °C 30.13 in /  1020.2 hPa WNW 3.5 mph /  5.6 km/h 3.5 mph /  5.6 km/h 43 % 0.00 in /  0 mm
14:11 62.3 °F /  16.8 °C 39.5 °F /  4.2 °C 30.13 in /  1020.2 hPa NNW 5.8 mph /  9.3 km/h 5.8 mph /  9.3 km/h 43 % 0.00 in /  0 mm
14:16 62.5 °F /  16.9 °C 39.7 °F /  4.3 °C 30.13 in /  1020.2 hPa WNW 4.6 mph /  7.4 km/h 4.6 mph /  7.4 km/h 43 % 0.00 in /  0 mm
14:21 62.4 °F /  16.9 °C 40.2 °F /  4.6 °C 30.13 in /  1020.2 hPa NW 3.5 mph /  5.6 km/h 3.5 mph /  5.6 km/h 44 % 0.00 in /  0 mm
14:26 62.8 °F /  17.1 °C 40.0 °F /  4.4 °C 30.13 in /  1020.2 hPa NW 3.5 mph /  5.6 km/h 3.5 mph /  5.6 km/h 43 % 0.00 in /  0 mm
14:31 62.8 °F /  17.1 °C 40.0 °F /  4.4 °C 30.13 in /  1020.2 hPa NW 3.5 mph /  5.6 km/h 3.5 mph /  5.6 km/h 43 % 0.00 in /  0 mm
14:36 62.9 °F /  17.2 °C 39.4 °F /  4.1 °C 30.13 in /  1020.2 hPa West 5.8 mph /  9.3 km/h 5.8 mph /  9.3 km/h 42 % 0.00 in /  0 mm
14:41 62.9 °F /  17.2 °C 39.4 °F /  4.1 °C 30.13 in /  1020.2 hPa NNW 3.5 mph /  5.6 km/h 3.5 mph /  5.6 km/h 42 % 0.00 in /  0 mm
14:46 63.1 °F /  17.3 °C 39.0 °F /  3.9 °C 30.13 in /  1020.2 hPa NNW 3.5 mph /  5.6 km/h 3.5 mph /  5.6 km/h 41 % 0.00 in /  0 mm
14:51 63.2 °F /  17.3 °C 37.8 °F /  3.2 °C 30.13 in /  1020.2 hPa NW 3.5 mph /  5.6 km/h 3.5 mph /  5.6 km/h 39 % 0.00 in /  0 mm
14:56 63.5 °F /  17.5 °C 39.4 °F /  4.1 °C 30.13 in /  1020.2 hPa NW 3.5 mph /  5.6 km/h 3.5 mph /  5.6 km/h 41 % 0.00 in /  0 mm
15:01 63.1 °F /  17.3 °C 39.6 °F /  4.2 °C 30.13 in /  1020.2 hPa WNW 3.0 mph /  4.8 km/h 3.0 mph /  4.8 km/h 42 % 0.00 in /  0 mm
15:06 63.4 °F /  17.4 °C 39.3 °F /  4.1 °C 30.13 in /  1020.2 hPa NNE 3.5 mph /  5.6 km/h 3.5 mph /  5.6 km/h 41 % 0.00 in /  0 mm
15:11 63.2 °F /  17.3 °C 39.1 °F /  3.9 °C 30.13 in /  1020.2 hPa WNW 5.8 mph /  9.3 km/h 5.8 mph /  9.3 km/h 41 % 0.00 in /  0 mm
15:16 63.3 °F /  17.4 °C 39.8 °F /  4.3 °C 30.13 in /  1020.2 hPa NW 6.9 mph /  11.1 km/h 6.9 mph /  11.1 km/h 42 % 0.00 in /  0 mm
15:21 63.0 °F /  17.2 °C 38.3 °F /  3.5 °C 30.13 in /  1020.2 hPa WNW 3.5 mph /  5.6 km/h 3.5 mph /  5.6 km/h 40 % 0.00 in /  0 mm
15:26 63.1 °F /  17.3 °C 39.6 °F /  4.2 °C 30.13 in /  1020.2 hPa NW 3.5 mph /  5.6 km/h 3.5 mph /  5.6 km/h 42 % 0.00 in /  0 mm
15:31 63.0 °F /  17.2 °C 38.9 °F /  3.8 °C 30.13 in /  1020.2 hPa WNW 3.0 mph /  4.8 km/h 3.0 mph /  4.8 km/h 41 % 0.00 in /  0 mm
15:36 62.9 °F /  17.2 °C 37.5 °F /  3.1 °C 30.13 in /  1020.2 hPa NW 4.6 mph /  7.4 km/h 4.6 mph /  7.4 km/h 39 % 0.00 in /  0 mm
15:41 62.4 °F /  16.9 °C 39.0 °F /  3.9 °C 30.13 in /  1020.2 hPa NW 3.5 mph /  5.6 km/h 3.5 mph /  5.6 km/h 42 % 0.00 in /  0 mm
15:46 62.1 °F /  16.7 °C 37.5 °F /  3.1 °C 30.13 in /  1020.2 hPa NNW 4.6 mph /  7.4 km/h 4.6 mph /  7.4 km/h 40 % 0.00 in /  0 mm
15:51 62.4 °F /  16.9 °C 38.4 °F /  3.6 °C 30.13 in /  1020.2 hPa NW 3.5 mph /  5.6 km/h 3.5 mph /  5.6 km/h 41 % 0.00 in /  0 mm
15:56 62.5 °F /  16.9 °C 37.2 °F /  2.9 °C 30.13 in /  1020.2 hPa NNW 3.5 mph /  5.6 km/h 3.5 mph /  5.6 km/h 39 % 0.00 in /  0 mm
16:01 62.5 °F /  16.9 °C 37.8 °F /  3.2 °C 30.13 in /  1020.2 hPa WNW 3.5 mph /  5.6 km/h 3.5 mph /  5.6 km/h 40 % 0.00 in /  0 mm
16:06 62.6 °F /  17 °C 37.3 °F /  2.9 °C 30.13 in /  1020.2 hPa WNW 5.8 mph /  9.3 km/h 5.8 mph /  9.3 km/h 39 % 0.00 in /  0 mm
16:11 62.6 °F /  17 °C 37.3 °F /  2.9 °C 30.13 in /  1020.2 hPa NW 3.5 mph /  5.6 km/h 3.5 mph /  5.6 km/h 39 % 0.00 in /  0 mm
16:16 62.4 °F /  16.9 °C 37.1 °F /  2.8 °C 30.13 in /  1020.2 hPa NW 2.3 mph /  3.7 km/h 2.3 mph /  3.7 km/h 39 % 0.00 in /  0 mm
16:21 62.5 °F /  16.9 °C 37.2 °F /  2.9 °C 30.13 in /  1020.2 hPa WNW 3.5 mph /  5.6 km/h 3.5 mph /  5.6 km/h 39 % 0.00 in /  0 mm
16:26 62.3 °F /  16.8 °C 37.0 °F /  2.8 °C 30.13 in /  1020.2 hPa WNW 2.3 mph /  3.7 km/h 2.3 mph /  3.7 km/h 39 % 0.00 in /  0 mm
16:31 62.2 °F /  16.8 °C 36.9 °F /  2.7 °C 30.13 in /  1020.2 hPa WNW 3.5 mph /  5.6 km/h 3.5 mph /  5.6 km/h 39 % 0.00 in /  0 mm
16:36 62.0 °F /  16.7 °C 36.7 °F /  2.6 °C 30.13 in /  1020.2 hPa NW 3.5 mph /  5.6 km/h 3.5 mph /  5.6 km/h 39 % 0.00 in /  0 mm
16:41 62.0 °F /  16.7 °C 36.7 °F /  2.6 °C 30.13 in /  1020.2 hPa NW 3.5 mph /  5.6 km/h 3.5 mph /  5.6 km/h 39 % 0.00 in /  0 mm
16:46 61.8 °F /  16.6 °C 36.6 °F /  2.6 °C 30.13 in /  1020.2 hPa NNW 3.0 mph /  4.8 km/h 3.0 mph /  4.8 km/h 39 % 0.00 in /  0 mm
16:51 61.7 °F /  16.5 °C 36.5 °F /  2.5 °C 30.13 in /  1020.2 hPa NNW 2.3 mph /  3.7 km/h 2.3 mph /  3.7 km/h 39 % 0.00 in /  0 mm
16:56 61.6 °F /  16.4 °C 35.7 °F /  2.1 °C 30.13 in /  1020.2 hPa West 3.5 mph /  5.6 km/h 3.5 mph /  5.6 km/h 38 % 0.00 in /  0 mm
17:01 61.4 °F /  16.3 °C 34.9 °F /  1.6 °C 30.13 in /  1020.2 hPa WNW 3.5 mph /  5.6 km/h 3.5 mph /  5.6 km/h 37 % 0.00 in /  0 mm
17:06 61.1 °F /  16.2 °C 35.3 °F /  1.8 °C 30.13 in /  1020.2 hPa NW 3.5 mph /  5.6 km/h 3.5 mph /  5.6 km/h 38 % 0.00 in /  0 mm
17:11 60.8 °F /  16 °C 35.7 °F /  2.1 °C 30.13 in /  1020.2 hPa NW 2.3 mph /  3.7 km/h 2.3 mph /  3.7 km/h 39 % 0.00 in /  0 mm
17:16 60.5 °F /  15.8 °C 36.0 °F /  2.2 °C 30.13 in /  1020.2 hPa NNW 2.3 mph /  3.7 km/h 2.3 mph /  3.7 km/h 40 % 0.00 in /  0 mm
17:21 60.4 °F /  15.8 °C 35.9 °F /  2.2 °C 30.13 in /  1020.2 hPa NW 2.3 mph /  3.7 km/h 2.3 mph /  3.7 km/h 40 % 0.00 in /  0 mm
17:26 60.2 °F /  15.7 °C 35.8 °F /  2.1 °C 30.14 in /  1020.5 hPa North 3.5 mph /  5.6 km/h 3.5 mph /  5.6 km/h 40 % 0.00 in /  0 mm
17:31 59.9 °F /  15.5 °C 35.5 °F /  1.9 °C 30.14 in /  1020.5 hPa WNW 3.5 mph /  5.6 km/h 3.5 mph /  5.6 km/h 40 % 0.00 in /  0 mm
17:36 59.5 °F /  15.3 °C 35.1 °F /  1.7 °C 30.14 in /  1020.5 hPa NW 2.3 mph /  3.7 km/h   40 % 0.00 in /  0 mm
17:41 59.1 °F /  15.1 °C 35.4 °F /  1.9 °C 30.14 in /  1020.5 hPa WNW 1.2 mph /  1.9 km/h   41 % 0.00 in /  0 mm
17:46 58.8 °F /  14.9 °C 35.1 °F /  1.7 °C 30.14 in /  1020.5 hPa NW 1.2 mph /  1.9 km/h   41 % 0.00 in /  0 mm
17:51 58.4 °F /  14.7 °C 35.4 °F /  1.9 °C 30.14 in /  1020.5 hPa Calm     42 % 0.00 in /  0 mm
17:56 58.1 °F /  14.5 °C 35.1 °F /  1.7 °C 30.14 in /  1020.5 hPa Calm   0.2 mph /  0.3 km/h 42 % 0.00 in /  0 mm
18:01 57.7 °F /  14.3 °C 35.3 °F /  1.8 °C 30.14 in /  1020.5 hPa WNW 1.0 mph /  1.6 km/h 1.0 mph /  1.6 km/h 43 % 0.00 in /  0 mm
18:06 57.3 °F /  14.1 °C 35.6 °F /  2 °C 30.14 in /  1020.5 hPa Calm   0.1 mph /  0.2 km/h 44 % 0.00 in /  0 mm
18:11 56.9 °F /  13.8 °C 35.2 °F /  1.8 °C 30.14 in /  1020.5 hPa Calm     44 % 0.00 in /  0 mm
18:16 56.7 °F /  13.7 °C 35.6 °F /  2 °C 30.14 in /  1020.5 hPa Calm   0.1 mph /  0.2 km/h 45 % 0.00 in /  0 mm
18:21 56.6 °F /  13.7 °C 35.5 °F /  1.9 °C 30.15 in /  1020.9 hPa Calm   0.1 mph /  0.2 km/h 45 % 0.00 in /  0 mm
18:26 56.5 °F /  13.6 °C 35.4 °F /  1.9 °C 30.15 in /  1020.9 hPa Calm     45 % 0.00 in /  0 mm
18:31 56.3 °F /  13.5 °C 35.2 °F /  1.8 °C 30.15 in /  1020.9 hPa Calm     45 % 0.00 in /  0 mm
18:36 55.8 °F /  13.2 °C 35.3 °F /  1.8 °C 30.15 in /  1020.9 hPa Calm     46 % 0.00 in /  0 mm
18:41 55.2 °F /  12.9 °C 36.9 °F /  2.7 °C 30.15 in /  1020.9 hPa Calm     50 % 0.00 in /  0 mm
18:46 54.6 °F /  12.6 °C 37.3 °F /  2.9 °C 30.16 in /  1021.2 hPa Calm     52 % 0.00 in /  0 mm
18:51 53.6 °F /  12 °C 37.8 °F /  3.2 °C 30.16 in /  1021.2 hPa Calm     55 % 0.00 in /  0 mm
18:56 52.8 °F /  11.6 °C 37.1 °F /  2.8 °C 30.16 in /  1021.2 hPa Calm     55 % 0.00 in /  0 mm
19:01 52.3 °F /  11.3 °C 37.1 °F /  2.8 °C 30.16 in /  1021.2 hPa Calm     56 % 0.00 in /  0 mm
19:06 52.0 °F /  11.1 °C 37.2 °F /  2.9 °C 30.16 in /  1021.2 hPa Calm     57 % 0.00 in /  0 mm
19:11 51.8 °F /  11 °C 37.0 °F /  2.8 °C 30.16 in /  1021.2 hPa Calm     57 % 0.00 in /  0 mm
19:16 51.6 °F /  10.9 °C 37.3 °F /  2.9 °C 30.16 in /  1021.2 hPa Calm     58 % 0.00 in /  0 mm
19:22 51.8 °F /  11 °C 36.6 °F /  2.6 °C 30.16 in /  1021.2 hPa Calm     56 % 0.00 in /  0 mm
19:27 52.4 °F /  11.3 °C 36.7 °F /  2.6 °C 30.16 in /  1021.2 hPa Calm     55 % 0.00 in /  0 mm
19:32 52.7 °F /  11.5 °C 36.5 °F /  2.5 °C 30.17 in /  1021.6 hPa Calm     54 % 0.00 in /  0 mm
19:37 53.1 °F /  11.7 °C 36.4 °F /  2.4 °C 30.16 in /  1021.2 hPa Calm   0.1 mph /  0.2 km/h 53 % 0.00 in /  0 mm
19:42 53.4 °F /  11.9 °C 36.7 °F /  2.6 °C 30.16 in /  1021.2 hPa Calm     53 % 0.00 in /  0 mm
19:47 53.5 °F /  11.9 °C 36.3 °F /  2.4 °C 30.16 in /  1021.2 hPa Calm     52 % 0.00 in /  0 mm
19:52 53.3 °F /  11.8 °C 36.6 °F /  2.6 °C 30.16 in /  1021.2 hPa Calm     53 % 0.00 in /  0 mm
19:57 52.9 °F /  11.6 °C 36.2 °F /  2.3 °C 30.16 in /  1021.2 hPa Calm     53 % 0.00 in /  0 mm
20:02 52.7 °F /  11.5 °C 36.0 °F /  2.2 °C 30.16 in /  1021.2 hPa Calm     53 % 0.00 in /  0 mm
20:07 52.4 °F /  11.3 °C 36.2 °F /  2.3 °C 30.17 in /  1021.6 hPa Calm     54 % 0.00 in /  0 mm
20:12 52.4 °F /  11.3 °C 36.2 °F /  2.3 °C 30.16 in /  1021.2 hPa Calm     54 % 0.00 in /  0 mm
20:17 52.4 °F /  11.3 °C 36.2 °F /  2.3 °C 30.16 in /  1021.2 hPa NW 1.2 mph /  1.9 km/h 1.2 mph /  1.9 km/h 54 % 0.00 in /  0 mm
20:22 52.4 °F /  11.3 °C 36.2 °F /  2.3 °C 30.16 in /  1021.2 hPa Calm     54 % 0.00 in /  0 mm
20:27 52.3 °F /  11.3 °C 36.1 °F /  2.3 °C 30.16 in /  1021.2 hPa Calm     54 % 0.00 in /  0 mm
20:32 52.3 °F /  11.3 °C 36.1 °F /  2.3 °C 30.16 in /  1021.2 hPa Calm     54 % 0.00 in /  0 mm
20:37 52.4 °F /  11.3 °C 36.2 °F /  2.3 °C 30.16 in /  1021.2 hPa NW 1.2 mph /  1.9 km/h   54 % 0.00 in /  0 mm
20:42 52.6 °F /  11.4 °C 35.9 °F /  2.2 °C 30.16 in /  1021.2 hPa NW 1.2 mph /  1.9 km/h 1.2 mph /  1.9 km/h 53 % 0.00 in /  0 mm
20:47 52.8 °F /  11.6 °C 35.6 °F /  2 °C 30.16 in /  1021.2 hPa NW 1.2 mph /  1.9 km/h 1.2 mph /  1.9 km/h 52 % 0.00 in /  0 mm
20:52 52.8 °F /  11.6 °C 35.6 °F /  2 °C 30.16 in /  1021.2 hPa Calm     52 % 0.00 in /  0 mm
20:57 52.6 °F /  11.4 °C 35.9 °F /  2.2 °C 30.16 in /  1021.2 hPa Calm     53 % 0.00 in /  0 mm
21:02 52.5 °F /  11.4 °C 35.8 °F /  2.1 °C 30.16 in /  1021.2 hPa Calm     53 % 0.00 in /  0 mm
21:07 52.2 °F /  11.2 °C 36.0 °F /  2.2 °C 30.16 in /  1021.2 hPa Calm     54 % 0.00 in /  0 mm
21:12 51.8 °F /  11 °C 35.7 °F /  2.1 °C 30.16 in /  1021.2 hPa Calm     54 % 0.00 in /  0 mm
21:17 52.0 °F /  11.1 °C 35.9 °F /  2.2 °C 30.16 in /  1021.2 hPa NNW 2.3 mph /  3.7 km/h 2.3 mph /  3.7 km/h 54 % 0.00 in /  0 mm
21:22 52.4 °F /  11.3 °C 35.8 °F /  2.1 °C 30.16 in /  1021.2 hPa NW 3.5 mph /  5.6 km/h 3.5 mph /  5.6 km/h 53 % 0.00 in /  0 mm
21:27 52.5 °F /  11.4 °C 35.8 °F /  2.1 °C 30.16 in /  1021.2 hPa Calm     53 % 0.00 in /  0 mm
21:32 52.5 °F /  11.4 °C 35.8 °F /  2.1 °C 30.15 in /  1020.9 hPa NNW 3.5 mph /  5.6 km/h 3.5 mph /  5.6 km/h 53 % 0.00 in /  0 mm
21:37 52.6 °F /  11.4 °C 35.9 °F /  2.2 °C 30.15 in /  1020.9 hPa NW 2.3 mph /  3.7 km/h 2.3 mph /  3.7 km/h 53 % 0.00 in /  0 mm
21:42 52.6 °F /  11.4 °C 35.9 °F /  2.2 °C 30.15 in /  1020.9 hPa NW 3.5 mph /  5.6 km/h 3.5 mph /  5.6 km/h 53 % 0.00 in /  0 mm
21:47 52.3 °F /  11.3 °C 35.7 °F /  2.1 °C 30.15 in /  1020.9 hPa NW 1.2 mph /  1.9 km/h 1.2 mph /  1.9 km/h 53 % 0.00 in /  0 mm
21:52 52.2 °F /  11.2 °C 36.0 °F /  2.2 °C 30.15 in /  1020.9 hPa North 1.2 mph /  1.9 km/h 1.2 mph /  1.9 km/h 54 % 0.00 in /  0 mm
21:57 52.4 °F /  11.3 °C 35.8 °F /  2.1 °C 30.15 in /  1020.9 hPa NNW 1.2 mph /  1.9 km/h 1.2 mph /  1.9 km/h 53 % 0.00 in /  0 mm
22:02 52.4 °F /  11.3 °C 35.8 °F /  2.1 °C 30.15 in /  1020.9 hPa NW 3.5 mph /  5.6 km/h 3.5 mph /  5.6 km/h 53 % 0.00 in /  0 mm
22:07 52.4 °F /  11.3 °C 35.8 °F /  2.1 °C 30.15 in /  1020.9 hPa NW 1.2 mph /  1.9 km/h 1.2 mph /  1.9 km/h 53 % 0.00 in /  0 mm
22:12 52.4 °F /  11.3 °C 35.8 °F /  2.1 °C 30.16 in /  1021.2 hPa NW 1.2 mph /  1.9 km/h   53 % 0.00 in /  0 mm
22:17 52.3 °F /  11.3 °C 35.7 °F /  2.1 °C 30.16 in /  1021.2 hPa WNW 1.2 mph /  1.9 km/h   53 % 0.00 in /  0 mm
22:22 52.1 °F /  11.2 °C 35.9 °F /  2.2 °C 30.16 in /  1021.2 hPa Calm     54 % 0.00 in /  0 mm
22:27 51.9 °F /  11.1 °C 36.2 °F /  2.3 °C 30.16 in /  1021.2 hPa Calm     55 % 0.00 in /  0 mm
22:32 51.7 °F /  10.9 °C 36.0 °F /  2.2 °C 30.16 in /  1021.2 hPa Calm     55 % 0.00 in /  0 mm
22:37 51.5 °F /  10.8 °C 36.3 °F /  2.4 °C 30.16 in /  1021.2 hPa Calm     56 % 0.00 in /  0 mm
22:42 51.5 °F /  10.8 °C 36.3 °F /  2.4 °C 30.16 in /  1021.2 hPa Calm     56 % 0.00 in /  0 mm
22:47 51.5 °F /  10.8 °C 36.3 °F /  2.4 °C 30.16 in /  1021.2 hPa Calm     56 % 0.00 in /  0 mm
22:52 51.4 °F /  10.8 °C 36.2 °F /  2.3 °C 30.16 in /  1021.2 hPa Calm     56 % 0.00 in /  0 mm
22:57 51.2 °F /  10.7 °C 36.9 °F /  2.7 °C 30.16 in /  1021.2 hPa Calm     58 % 0.00 in /  0 mm
23:02 51.2 °F /  10.7 °C 36.5 °F /  2.5 °C 30.16 in /  1021.2 hPa Calm     57 % 0.00 in /  0 mm
23:07 51.2 °F /  10.7 °C 36.5 °F /  2.5 °C 30.16 in /  1021.2 hPa Calm   0.1 mph /  0.2 km/h 57 % 0.00 in /  0 mm
23:12 51.1 °F /  10.6 °C 36.4 °F /  2.4 °C 30.16 in /  1021.2 hPa Calm     57 % 0.00 in /  0 mm
23:17 51.0 °F /  10.6 °C 36.7 °F /  2.6 °C 30.16 in /  1021.2 hPa Calm     58 % 0.00 in /  0 mm
23:22 50.8 °F /  10.4 °C 36.5 °F /  2.5 °C 30.16 in /  1021.2 hPa Calm     58 % 0.00 in /  0 mm
23:27 50.5 °F /  10.3 °C 36.7 °F /  2.6 °C 30.16 in /  1021.2 hPa Calm     59 % 0.00 in /  0 mm
23:32 50.0 °F /  10 °C 37.5 °F /  3.1 °C 30.16 in /  1021.2 hPa Calm     62 % 0.00 in /  0 mm
23:37 49.0 °F /  9.4 °C 37.3 °F /  2.9 °C 30.16 in /  1021.2 hPa Calm     64 % 0.00 in /  0 mm
23:42 48.2 °F /  9 °C 37.4 °F /  3 °C 30.16 in /  1021.2 hPa Calm     66 % 0.00 in /  0 mm
23:47 47.8 °F /  8.8 °C 37.4 °F /  3 °C 30.16 in /  1021.2 hPa Calm     67 % 0.00 in /  0 mm
23:52 47.6 °F /  8.7 °C 37.2 °F /  2.9 °C 30.16 in /  1021.2 hPa Calm     67 % 0.00 in /  0 mm
23:57 47.1 °F /  8.4 °C 37.4 °F /  3 °C 30.17 in /  1021.6 hPa Calm     69 % 0.00 in /  0 mm
Park Place, Exeter, Tulare County, California, USA
Compliments of Weather Underground - 2.75 mb